Time;durP1;ratioP1;P1;durP2;ratioP2;P2;SDS_P1;SDS_P2;PMS_P1;PMS_P2;Temp;Humidity;BMP_temperature;BMP_pressure;BME280_temperature;BME280_humidity;BME280_pressure;Samples;Min_cycle;Max_cycle;Signal;HPM_P1;HPM_P2
2023/03/05 00:01:12;;;;;;;14.87;11.03;;;7.00;58.60;6.60;96548.00;;;;5029292;28;20241;-80
2023/03/05 00:03:40;;;;;;;14.00;9.57;;;7.00;58.70;6.60;96547.00;;;;5023534;28;20198;-80
2023/03/05 00:06:08;;;;;;;13.57;10.23;;;6.90;58.60;6.60;96547.00;;;;5017620;28;20198;-80
2023/03/05 00:08:36;;;;;;;15.30;10.20;;;6.90;58.70;6.60;96542.00;;;;5034606;28;20201;-79
2023/03/05 00:11:06;;;;;;;17.07;10.60;;;6.90;58.60;6.50;96542.00;;;;5051810;28;20240;-80
2023/03/05 00:13:37;;;;;;;15.57;10.70;;;6.90;58.60;6.50;96543.00;;;;5033835;28;20284;-80
2023/03/05 00:16:06;;;;;;;15.93;10.93;;;6.90;58.60;6.50;96546.00;;;;5030021;28;20271;-80
2023/03/05 00:18:35;;;;;;;15.10;9.43;;;6.90;58.60;6.50;96538.00;;;;5033662;28;20640;-79
2023/03/05 00:21:03;;;;;;;17.17;11.63;;;6.80;58.60;6.50;96547.00;;;;5028364;28;20778;-80
2023/03/05 00:23:31;;;;;;;16.73;11.00;;;6.80;58.60;6.50;96539.00;;;;5031826;28;20205;-80
2023/03/05 00:26:04;;;;;;;15.33;11.07;;;6.80;58.70;6.40;96531.00;;;;5032888;28;20201;-80
2023/03/05 00:28:31;;;;;;;17.13;10.93;;;6.80;58.70;6.40;96533.00;;;;5034725;28;20193;-81
2023/03/05 00:31:01;;;;;;;15.40;10.70;;;6.80;58.80;6.40;96532.00;;;;5033660;28;20300;-80
2023/03/05 00:33:29;;;;;;;16.23;11.10;;;6.80;58.90;6.40;96530.00;;;;5035405;28;20592;-80
2023/03/05 00:35:57;;;;;;;17.13;10.90;;;6.80;58.90;6.40;96538.00;;;;5036107;28;20312;-80
2023/03/05 00:38:24;;;;;;;14.93;10.83;;;6.80;58.90;6.40;96533.00;;;;5035146;28;20729;-80
2023/03/05 00:40:52;;;;;;;16.00;10.43;;;6.80;58.90;6.40;96529.00;;;;5006884;28;20305;-80
2023/03/05 00:43:19;;;;;;;16.77;10.73;;;6.80;59.00;6.40;96525.00;;;;5034499;28;20234;-79
2023/03/05 00:45:47;;;;;;;15.67;10.27;;;6.80;59.00;6.50;96526.00;;;;5031228;28;20276;-80
2023/03/05 00:48:16;;;;;;;16.60;11.20;;;6.80;59.00;6.50;96524.00;;;;5031717;28;20189;-80
2023/03/05 00:50:43;;;;;;;17.10;11.03;;;6.80;59.00;6.50;96531.00;;;;5032262;28;20233;-79
2023/03/05 00:53:10;;;;;;;16.77;11.13;;;6.80;59.00;6.50;96522.00;;;;5031452;28;20288;-79
2023/03/05 00:55:38;;;;;;;15.80;11.20;;;6.80;59.00;6.50;96516.00;;;;5032488;28;20724;-80
2023/03/05 00:58:05;;;;;;;17.40;10.57;;;6.80;58.90;6.50;96522.00;;;;5032504;28;20276;-80
2023/03/05 01:00:33;;;;;;;15.60;10.53;;;6.80;59.00;6.50;96520.00;;;;5033152;28;20577;-79
2023/03/05 01:03:00;;;;;;;16.53;10.83;;;6.80;59.00;6.50;96516.00;;;;5032214;28;20193;-80
2023/03/05 01:05:30;;;;;;;16.23;10.47;;;6.80;59.00;6.40;96511.00;;;;5032412;28;20269;-80
2023/03/05 01:07:58;;;;;;;17.80;11.73;;;6.80;59.00;6.40;96509.00;;;;5031962;28;20225;-80
2023/03/05 01:10:26;;;;;;;15.20;10.77;;;6.80;59.00;6.40;96510.00;;;;5034194;28;20639;-80
2023/03/05 01:12:54;;;;;;;19.33;11.53;;;6.80;59.00;6.40;96508.00;;;;5033854;28;20268;-80
2023/03/05 01:15:22;;;;;;;17.57;11.53;;;6.80;59.10;6.40;96501.00;;;;5034612;28;20307;-81
2023/03/05 01:17:50;;;;;;;17.17;12.00;;;6.80;59.20;6.40;96507.00;;;;5033237;28;20831;-80
2023/03/05 01:20:21;;;;;;;22.50;13.93;;;6.80;59.10;6.40;96492.00;;;;5033246;28;20655;-81
2023/03/05 01:22:50;;;;;;;18.90;11.87;;;6.80;59.10;6.40;96486.00;;;;5035516;28;20280;-82
2023/03/05 01:25:18;;;;;;;20.10;12.43;;;6.80;59.10;6.40;96488.00;;;;5036617;28;20256;-80
2023/03/05 01:27:45;;;;;;;19.50;12.60;;;6.80;59.20;6.40;96490.00;;;;5035445;28;20261;-81
2023/03/05 01:30:15;;;;;;;18.57;11.73;;;6.70;59.10;6.40;96484.00;;;;5035780;28;20281;-82
2023/03/05 01:32:43;;;;;;;18.83;12.27;;;6.70;59.10;6.40;96479.00;;;;5036477;28;20228;-81
2023/03/05 01:35:17;;;;;;;21.47;12.03;;;6.70;59.20;6.40;96476.00;;;;5036480;28;20285;-79
2023/03/05 01:37:44;;;;;;;19.33;12.33;;;6.70;59.30;6.40;96484.00;;;;5017580;28;20206;-80
2023/03/05 01:40:19;;;;;;;20.83;12.70;;;6.70;59.30;6.40;96475.00;;;;5036034;28;20239;-80
2023/03/05 01:42:47;;;;;;;21.67;12.37;;;6.80;59.30;6.40;96465.00;;;;5042626;28;20216;-80
2023/03/05 01:45:18;;;;;;;19.27;12.60;;;6.70;59.30;6.40;96459.00;;;;5040399;28;20193;-80
2023/03/05 01:47:46;;;;;;;21.63;13.00;;;6.70;59.20;6.40;96460.00;;;;5055803;28;20221;-79
2023/03/05 01:50:20;;;;;;;20.73;12.20;;;6.70;59.30;6.30;96454.00;;;;5035469;28;20197;-79
2023/03/05 01:52:55;;;;;;;22.57;13.57;;;6.70;59.30;6.30;96451.00;;;;5037318;28;20208;-79
2023/03/05 01:55:27;;;;;;;19.93;12.47;;;6.70;59.40;6.30;96449.00;;;;5032830;28;20221;-80
2023/03/05 01:58:00;;;;;;;19.57;12.40;;;6.70;59.40;6.30;96456.00;;;;5035886;28;20252;-79
2023/03/05 02:00:32;;;;;;;21.97;13.03;;;6.70;59.40;6.30;96446.00;;;;5034105;28;20206;-80
2023/03/05 02:03:05;;;;;;;22.70;13.20;;;6.70;59.50;6.30;96456.00;;;;5027614;28;20274;-80
2023/03/05 02:05:36;;;;;;;22.00;12.57;;;6.70;59.60;6.30;96450.00;;;;5040131;28;20284;-80
2023/03/05 02:08:09;;;;;;;19.43;12.43;;;6.70;59.70;6.30;96445.00;;;;5037817;28;20228;-80
2023/03/05 02:10:41;;;;;;;20.60;12.57;;;6.70;59.60;6.30;96446.00;;;;5038998;28;20205;-81
2023/03/05 02:13:13;;;;;;;20.80;12.93;;;6.70;59.60;6.40;96447.00;;;;5039094;28;20193;-79
2023/03/05 02:15:42;;;;;;;19.87;12.03;;;6.70;59.60;6.40;96433.00;;;;5033817;28;20313;-81
2023/03/05 02:18:11;;;;;;;21.90;13.33;;;6.70;60.00;6.40;96443.00;;;;5031614;28;20273;-80
2023/03/05 02:20:49;;;;;;;22.40;13.23;;;6.70;59.70;6.40;96438.00;;;;5034363;28;20198;-80
2023/03/05 02:23:21;;;;;;;22.07;14.33;;;6.70;59.70;6.40;96437.00;;;;5034722;28;20228;-81
2023/03/05 02:25:50;;;;;;;22.40;13.20;;;6.70;59.70;6.40;96423.00;;;;5033606;28;20190;-79
2023/03/05 02:28:24;;;;;;;20.03;12.70;;;6.70;59.70;6.40;96429.00;;;;5033805;28;20284;-80
2023/03/05 02:30:52;;;;;;;19.70;12.47;;;6.70;59.80;6.40;96424.00;;;;5035115;28;20304;-79
2023/03/05 02:33:21;;;;;;;23.00;13.37;;;6.70;59.70;6.40;96420.00;;;;5034457;28;20219;-80
2023/03/05 02:35:48;;;;;;;23.93;13.47;;;6.70;59.70;6.40;96427.00;;;;5034428;28;20244;-80
2023/03/05 02:38:20;;;;;;;23.40;13.33;;;6.70;59.80;6.40;96415.00;;;;5032313;28;20289;-81
2023/03/05 02:40:48;;;;;;;23.60;12.80;;;6.70;59.80;6.40;96420.00;;;;5034328;28;20214;-81
2023/03/05 02:43:16;;;;;;;24.53;13.40;;;6.70;59.90;6.40;96412.00;;;;5058752;28;20208;-80
2023/03/05 02:45:45;;;;;;;22.60;13.43;;;6.70;59.90;6.40;96413.00;;;;5047764;28;20280;-80
2023/03/05 02:48:13;;;;;;;23.17;13.20;;;6.80;60.00;6.40;96407.00;;;;5034010;28;20229;-81
2023/03/05 02:50:41;;;;;;;20.50;13.37;;;6.80;60.10;6.40;96408.00;;;;5033336;28;20284;-80
2023/03/05 02:53:08;;;;;;;21.33;12.90;;;6.80;60.10;6.40;96409.00;;;;5035376;28;20235;-80
2023/03/05 02:55:38;;;;;;;23.47;13.67;;;6.80;60.10;6.40;96407.00;;;;5037739;28;20283;-80
2023/03/05 02:58:05;;;;;;;24.80;13.97;;;6.80;60.20;6.40;96403.00;;;;5041179;28;20198;-80
2023/03/05 03:00:33;;;;;;;24.50;14.40;;;6.80;60.10;6.40;96400.00;;;;5038044;28;20261;-80
2023/03/05 03:03:00;;;;;;;25.27;15.60;;;6.80;60.20;6.50;96403.00;;;;5045311;28;20232;-80
2023/03/05 03:05:28;;;;;;;20.40;13.07;;;6.80;60.20;6.50;96394.00;;;;5038385;28;20284;-80
2023/03/05 03:07:55;;;;;;;22.20;13.27;;;6.80;60.20;6.50;96391.00;;;;5036436;28;20190;-80
2023/03/05 03:10:22;;;;;;;25.13;13.43;;;6.80;60.20;6.50;96392.00;;;;5035876;28;20742;-81
2023/03/05 03:12:51;;;;;;;23.40;13.80;;;6.80;60.30;6.50;96390.00;;;;5035179;28;20225;-80
2023/03/05 03:15:19;;;;;;;21.97;12.97;;;6.80;60.30;6.50;96390.00;;;;5035185;28;20304;-81
2023/03/05 03:17:48;;;;;;;24.53;13.87;;;6.80;60.20;6.50;96382.00;;;;5034357;28;20201;-81
2023/03/05 03:20:18;;;;;;;25.03;15.00;;;6.80;60.20;6.50;96385.00;;;;5017887;28;20194;-80
2023/03/05 03:22:47;;;;;;;19.90;12.97;;;6.80;60.30;6.50;96378.00;;;;5033702;28;20185;-81
2023/03/05 03:25:17;;;;;;;29.07;15.00;;;6.80;60.50;6.50;96376.00;;;;5035921;28;20284;-81
2023/03/05 03:27:44;;;;;;;25.97;13.80;;;6.90;60.50;6.60;96372.00;;;;5032056;28;20292;-80
2023/03/05 03:30:17;;;;;;;24.47;13.73;;;6.90;60.50;6.60;96369.00;;;;5029740;28;20235;-80
2023/03/05 03:32:44;;;;;;;25.03;13.83;;;6.90;60.50;6.60;96374.00;;;;5034444;28;20228;-80
2023/03/05 03:35:15;;;;;;;21.43;13.37;;;6.90;60.50;6.60;96374.00;;;;5033424;28;20312;-81
2023/03/05 03:37:42;;;;;;;24.80;13.40;;;6.90;60.50;6.60;96369.00;;;;5032985;28;20197;-79
2023/03/05 03:40:12;;;;;;;25.63;13.70;;;6.90;60.50;6.60;96366.00;;;;5034342;28;20731;-81
2023/03/05 03:42:39;;;;;;;25.97;14.03;;;6.90;60.40;6.60;96370.00;;;;5042872;28;20312;-80
2023/03/05 03:45:08;;;;;;;24.73;14.07;;;6.90;60.40;6.60;96365.00;;;;5036458;28;20704;-80
2023/03/05 03:47:37;;;;;;;24.80;13.93;;;6.90;60.40;6.60;96374.00;;;;5036419;28;20426;-81
2023/03/05 03:50:06;;;;;;;24.20;13.30;;;6.90;60.30;6.60;96368.00;;;;5034944;28;20285;-79
2023/03/05 03:52:34;;;;;;;25.33;14.43;;;6.90;60.40;6.60;96366.00;;;;5033858;28;20360;-81
2023/03/05 03:55:01;;;;;;;22.37;13.47;;;6.90;60.40;6.60;96358.00;;;;5021204;28;20277;-81
2023/03/05 03:57:32;;;;;;;22.67;14.30;;;6.90;60.30;6.60;96363.00;;;;5031253;28;20257;-80
2023/03/05 04:00:00;;;;;;;23.30;14.27;;;6.90;60.40;6.50;96361.00;;;;5035371;28;20192;-80
2023/03/05 04:02:28;;;;;;;25.07;13.63;;;6.90;60.50;6.50;96357.00;;;;5034780;28;20243;-79
2023/03/05 04:04:56;;;;;;;23.83;13.63;;;6.90;60.50;6.50;96355.00;;;;5035593;28;20285;-79
2023/03/05 04:07:24;;;;;;;24.27;13.33;;;6.90;60.50;6.50;96350.00;;;;5031617;28;20202;-81
2023/03/05 04:09:51;;;;;;;24.07;13.87;;;7.00;60.70;6.60;96351.00;;;;5030515;28;20207;-80
2023/03/05 04:12:19;;;;;;;25.47;14.13;;;6.90;60.70;6.60;96353.00;;;;5033552;28;20754;-81
2023/03/05 04:14:48;;;;;;;23.17;13.47;;;6.90;60.70;6.60;96352.00;;;;5033556;28;20735;-81
2023/03/05 04:17:17;;;;;;;23.20;13.93;;;6.90;60.60;6.60;96352.00;;;;5031453;28;20228;-81
2023/03/05 04:19:44;;;;;;;24.13;13.77;;;6.90;60.60;6.60;96340.00;;;;5025812;28;20203;-81
2023/03/05 04:22:17;;;;;;;27.57;13.90;;;6.90;60.70;6.60;96336.00;;;;5033590;28;20214;-81
2023/03/05 04:24:44;;;;;;;24.80;14.37;;;7.00;60.70;6.60;96332.00;;;;5032669;28;20293;-81
2023/03/05 04:27:12;;;;;;;25.23;14.00;;;6.90;60.70;6.70;96333.00;;;;5047366;28;20201;-80
2023/03/05 04:29:41;;;;;;;26.30;14.47;;;7.00;60.80;6.70;96333.00;;;;5032402;28;20200;-80
2023/03/05 04:32:09;;;;;;;24.40;13.50;;;7.00;60.90;6.70;96329.00;;;;5022732;28;20227;-80
2023/03/05 04:34:38;;;;;;;26.17;14.03;;;7.00;60.90;6.70;96329.00;;;;5032482;28;20613;-82
2023/03/05 04:37:06;;;;;;;23.37;13.50;;;7.00;61.10;6.70;96326.00;;;;5030519;28;20300;-81
2023/03/05 04:39:35;;;;;;;24.53;14.40;;;7.00;61.00;6.70;96321.00;;;;5030906;28;20276;-80
2023/03/05 04:42:03;;;;;;;23.43;13.30;;;7.00;60.90;6.70;96321.00;;;;5029404;28;20424;-81
2023/03/05 04:44:30;;;;;;;22.57;13.73;;;7.00;60.90;6.70;96322.00;;;;5033952;28;20284;-81
2023/03/05 04:46:57;;;;;;;22.17;13.53;;;7.00;60.90;6.70;96322.00;;;;5035487;28;20233;-81
2023/03/05 04:49:25;;;;;;;20.57;12.57;;;7.00;60.90;6.70;96327.00;;;;5022884;28;20197;-81
2023/03/05 04:51:52;;;;;;;22.57;12.70;;;7.00;60.80;6.70;96323.00;;;;5018885;28;20315;-81
2023/03/05 04:54:19;;;;;;;24.77;12.77;;;7.00;61.00;6.70;96324.00;;;;5032211;28;20224;-81
2023/03/05 04:56:48;;;;;;;22.53;13.20;;;7.00;61.00;6.70;96309.00;;;;5033025;28;20309;-81
2023/03/05 04:59:16;;;;;;;23.23;13.47;;;7.00;61.00;6.80;96319.00;;;;5026908;28;20746;-81
2023/03/05 05:01:43;;;;;;;23.80;13.57;;;7.00;61.00;6.80;96312.00;;;;5023037;28;20610;-81
2023/03/05 05:04:10;;;;;;;22.00;13.60;;;7.00;61.00;6.80;96309.00;;;;5026978;28;20236;-80
2023/03/05 05:06:37;;;;;;;20.03;12.53;;;7.00;61.10;6.80;96314.00;;;;5024479;28;20290;-81
2023/03/05 05:09:05;;;;;;;24.47;13.47;;;7.10;61.20;6.80;96305.00;;;;5033833;28;20288;-81
2023/03/05 05:11:32;;;;;;;23.23;13.63;;;7.10;61.10;6.80;96303.00;;;;5037795;28;20815;-81
2023/03/05 05:14:01;;;;;;;20.33;12.33;;;7.10;61.10;6.80;96297.00;;;;5027977;28;20190;-81
2023/03/05 05:16:29;;;;;;;21.07;12.47;;;7.10;61.20;6.80;96306.00;;;;5021470;28;20312;-81
2023/03/05 05:18:56;;;;;;;19.53;11.87;;;7.10;61.20;6.80;96306.00;;;;5038587;28;20284;-81
2023/03/05 05:21:24;;;;;;;19.53;12.23;;;7.10;61.10;6.80;96296.00;;;;5024914;28;20214;-81
2023/03/05 05:23:51;;;;;;;19.07;11.73;;;7.10;61.10;6.80;96298.00;;;;5006909;28;20198;-81
2023/03/05 05:26:19;;;;;;;24.83;12.93;;;7.10;61.10;6.80;96302.00;;;;5031523;28;20558;-81
2023/03/05 05:28:46;;;;;;;22.80;12.57;;;7.10;61.30;6.90;96308.00;;;;5031526;28;20220;-81
2023/03/05 05:31:17;;;;;;;19.37;11.63;;;7.10;61.30;6.90;96312.00;;;;5030290;28;20209;-81
2023/03/05 05:33:45;;;;;;;20.17;11.83;;;7.20;61.30;6.90;96310.00;;;;5032687;28;20193;-80
2023/03/05 05:36:18;;;;;;;18.27;11.73;;;7.20;61.40;6.90;96310.00;;;;5040007;28;20252;-81
2023/03/05 05:38:45;;;;;;;19.97;12.10;;;7.20;61.30;7.00;96311.00;;;;5031684;28;20202;-81
2023/03/05 05:41:16;;;;;;;20.47;12.10;;;7.20;61.30;7.00;96312.00;;;;5029433;28;20217;-79
2023/03/05 05:43:44;;;;;;;18.23;11.10;;;7.20;62.00;7.00;96314.00;;;;5035983;28;20232;-81
2023/03/05 05:46:16;;;;;;;18.27;10.97;;;7.20;61.20;7.00;96311.00;;;;5037625;28;20201;-81
2023/03/05 05:48:45;;;;;;;21.07;12.27;;;7.20;62.00;7.00;96316.00;;;;5037713;28;20335;-81
2023/03/05 05:51:17;;;;;;;21.83;12.20;;;7.20;61.20;7.00;96320.00;;;;5039873;28;20312;-81
2023/03/05 05:53:45;;;;;;;20.50;11.70;;;7.30;61.30;7.00;96319.00;;;;5043845;28;20221;-81
2023/03/05 05:56:15;;;;;;;22.53;12.80;;;7.30;61.30;7.00;96312.00;;;;5038467;28;20213;-81
2023/03/05 05:58:45;;;;;;;19.40;11.40;;;7.20;61.20;7.00;96312.00;;;;5037935;28;20198;-81
2023/03/05 06:01:18;;;;;;;42.03;23.50;;;7.30;61.30;7.10;96323.00;;;;5037277;28;20489;-80
2023/03/05 06:03:46;;;;;;;66.00;35.63;;;7.30;61.30;7.10;96323.00;;;;5037992;28;20354;-81
2023/03/05 06:06:17;;;;;;;37.70;23.50;;;7.30;61.30;7.10;96320.00;;;;5027674;28;20197;-81
2023/03/05 06:08:45;;;;;;;24.30;14.73;;;7.30;61.30;7.10;96326.00;;;;5033172;28;20324;-80
2023/03/05 06:11:13;;;;;;;20.77;12.30;;;7.30;61.30;7.10;96320.00;;;;5035435;28;20248;-81
2023/03/05 06:13:41;;;;;;;23.33;12.47;;;7.30;61.30;7.10;96324.00;;;;5037164;28;20627;-81
2023/03/05 06:16:13;;;;;;;17.33;10.67;;;7.30;61.30;7.10;96320.00;;;;5035757;28;20221;-81
2023/03/05 06:18:42;;;;;;;18.60;11.30;;;7.40;61.30;7.10;96324.00;;;;5037037;28;20663;-80
2023/03/05 06:21:13;;;;;;;18.10;10.13;;;7.30;61.30;7.10;96314.00;;;;5036292;28;20621;-81
2023/03/05 06:23:42;;;;;;;18.87;11.07;;;7.30;61.40;7.10;96318.00;;;;5034506;28;20280;-80
2023/03/05 06:26:13;;;;;;;21.67;11.67;;;7.40;61.50;7.10;96320.00;;;;5034645;28;20288;-80
2023/03/05 06:28:41;;;;;;;22.17;11.30;;;7.40;61.60;7.20;96317.00;;;;5034920;28;20273;-80
2023/03/05 06:31:12;;;;;;;17.63;10.67;;;7.40;61.60;7.20;96317.00;;;;5035006;28;20300;-81
2023/03/05 06:33:42;;;;;;;17.20;10.40;;;7.40;61.50;7.20;96312.00;;;;5035954;28;20655;-80
2023/03/05 06:36:13;;;;;;;16.47;10.97;;;7.40;61.50;7.20;96317.00;;;;5037135;28;20245;-80
2023/03/05 06:38:41;;;;;;;20.80;12.00;;;7.40;61.40;7.20;96311.00;;;;5036748;28;20225;-80
2023/03/05 06:41:12;;;;;;;19.33;12.40;;;7.40;61.40;7.20;96311.00;;;;5043066;28;20216;-79
2023/03/05 06:43:44;;;;;;;17.10;10.90;;;7.40;61.40;7.20;96319.00;;;;5049405;28;20208;-79
2023/03/05 06:46:16;;;;;;;18.27;11.33;;;7.50;61.50;7.20;96308.00;;;;5036082;28;20632;-80
2023/03/05 06:48:46;;;;;;;16.37;11.23;;;7.50;61.50;7.20;96308.00;;;;5038954;28;20284;-80
2023/03/05 06:51:15;;;;;;;20.07;11.93;;;7.50;61.60;7.20;96309.00;;;;5034215;28;20281;-81
2023/03/05 06:53:44;;;;;;;17.17;10.70;;;7.50;61.50;7.30;96303.00;;;;5039025;28;20213;-80
2023/03/05 06:56:12;;;;;;;17.90;11.13;;;7.40;61.50;7.30;96302.00;;;;5037304;28;20205;-80
2023/03/05 06:58:40;;;;;;;17.73;10.47;;;7.50;61.50;7.30;96303.00;;;;5037703;28;20198;-80
2023/03/05 07:01:08;;;;;;;18.67;11.13;;;7.50;61.50;7.20;96299.00;;;;5034452;28;20531;-80
2023/03/05 07:03:36;;;;;;;20.53;11.77;;;7.50;61.60;7.20;96304.00;;;;5045111;28;20233;-81
2023/03/05 07:06:08;;;;;;;20.37;11.33;;;7.50;61.50;7.20;96305.00;;;;5049750;28;20240;-79
2023/03/05 07:08:37;;;;;;;19.50;11.40;;;7.50;61.50;7.20;96304.00;;;;5050246;28;20261;-80
2023/03/05 07:11:10;;;;;;;18.23;11.07;;;7.50;61.50;7.30;96294.00;;;;5048942;28;20229;-80
2023/03/05 07:13:37;;;;;;;17.60;10.60;;;7.50;61.60;7.30;96301.00;;;;5061344;28;20288;-82
2023/03/05 07:16:08;;;;;;;19.03;11.70;;;7.60;61.60;7.30;96307.00;;;;5039112;28;20196;-80
2023/03/05 07:18:36;;;;;;;17.93;10.93;;;7.50;61.50;7.30;96299.00;;;;5035834;28;20194;-80
2023/03/05 07:21:08;;;;;;;19.30;11.97;;;7.50;61.60;7.30;96297.00;;;;5039164;28;20737;-85
2023/03/05 07:23:37;;;;;;;19.57;11.90;;;7.50;61.70;7.30;96297.00;;;;5040347;28;20237;-87
2023/03/05 07:26:06;;;;;;;19.83;11.53;;;7.50;61.70;7.40;96306.00;;;;5038340;28;20694;-86
2023/03/05 07:28:34;;;;;;;18.90;11.73;;;7.60;61.70;7.50;96299.00;;;;5038822;28;20341;-86
2023/03/05 07:31:05;;;;;;;18.40;11.73;;;7.60;61.80;7.60;96302.00;;;;5034138;28;20217;-86
2023/03/05 07:33:34;;;;;;;19.10;12.07;;;7.60;61.70;7.60;96308.00;;;;5039219;28;20189;-86
2023/03/05 07:36:03;;;;;;;18.93;12.17;;;7.70;61.70;7.70;96308.00;;;;5041090;28;20280;-86
2023/03/05 07:38:32;;;;;;;19.63;11.50;;;7.70;61.70;7.70;96298.00;;;;5046376;28;20220;-85
2023/03/05 07:41:03;;;;;;;20.20;11.63;;;7.80;61.80;7.80;96304.00;;;;5054325;28;20245;-86
2023/03/05 07:43:30;;;;;;;17.23;11.13;;;7.80;61.60;7.80;96292.00;;;;5028463;28;20220;-85
2023/03/05 07:45:58;;;;;;;19.90;11.27;;;7.80;61.60;7.80;96291.00;;;;5021728;28;20261;-85
2023/03/05 07:48:25;;;;;;;20.27;11.77;;;7.90;61.40;7.90;96287.00;;;;5036911;28;20288;-85
2023/03/05 07:51:02;;;;;;;17.27;11.37;;;7.90;61.40;7.90;96296.00;;;;5036856;28;20245;-85
2023/03/05 07:53:30;;;;;;;16.83;10.97;;;7.90;61.40;7.90;96291.00;;;;5039610;28;20766;-85
2023/03/05 07:55:59;;;;;;;18.47;11.30;;;8.00;61.50;8.00;96307.00;;;;5031547;28;20225;-84
2023/03/05 07:58:27;;;;;;;18.63;11.87;;;8.00;61.50;8.00;96294.00;;;;5052700;28;20826;-83
2023/03/05 08:00:55;;;;;;;19.43;11.63;;;8.10;61.50;8.00;96294.00;;;;5032977;28;20236;-84
2023/03/05 08:03:22;;;;;;;18.80;12.00;;;8.10;62.00;8.10;96288.00;;;;5017151;28;20209;-84
2023/03/05 08:05:49;;;;;;;18.30;12.03;;;8.10;61.30;8.10;96283.00;;;;5033748;28;20273;-85
2023/03/05 08:08:17;;;;;;;20.13;12.47;;;8.10;61.30;8.10;96287.00;;;;5033253;28;20782;-83
2023/03/05 08:10:44;;;;;;;19.53;12.63;;;8.10;61.90;8.10;96286.00;;;;5033041;28;20253;-85
2023/03/05 08:13:14;;;;;;;21.10;12.70;;;8.10;61.00;8.10;96286.00;;;;5031876;28;20280;-86
2023/03/05 08:15:41;;;;;;;20.20;12.07;;;8.20;61.20;8.10;96277.00;;;;5039114;28;20211;-84
2023/03/05 08:18:08;;;;;;;21.47;12.43;;;8.20;61.20;8.10;96281.00;;;;5038701;28;20309;-84
2023/03/05 08:20:36;;;;;;;20.10;12.20;;;8.20;61.10;8.10;96279.00;;;;5033868;28;20289;-83
2023/03/05 08:23:04;;;;;;;21.23;11.57;;;8.20;61.10;8.10;96272.00;;;;5035935;28;20221;-85
2023/03/05 08:25:31;;;;;;;22.53;12.27;;;8.20;61.10;8.20;96274.00;;;;5035641;28;20217;-85
2023/03/05 08:27:59;;;;;;;20.47;12.17;;;8.20;61.10;8.20;96269.00;;;;5033771;28;20285;-84
2023/03/05 08:30:28;;;;;;;18.33;12.37;;;8.30;61.30;8.30;96271.00;;;;5034966;28;20232;-87
2023/03/05 08:32:56;;;;;;;19.83;12.63;;;8.30;61.10;8.20;96269.00;;;;5016103;28;20193;-87
2023/03/05 08:35:24;;;;;;;17.57;11.53;;;8.30;61.00;8.30;96271.00;;;;5033919;28;20205;-84
2023/03/05 08:37:51;;;;;;;22.60;12.77;;;8.30;60.90;8.30;96265.00;;;;5035319;28;20224;-85
2023/03/05 08:40:19;;;;;;;22.60;12.77;;;8.30;60.90;8.40;96259.00;;;;5030112;28;20659;-87
2023/03/05 08:42:46;;;;;;;21.57;12.03;;;8.40;61.20;8.40;96264.00;;;;5033259;28;20220;-84
2023/03/05 08:45:14;;;;;;;18.47;11.87;;;8.40;61.30;8.50;96271.00;;;;5034334;28;20197;-84
2023/03/05 08:47:43;;;;;;;19.63;12.43;;;8.40;61.20;8.50;96267.00;;;;5017337;28;20281;-84
2023/03/05 08:50:12;;;;;;;20.63;12.30;;;8.40;61.20;8.50;96267.00;;;;5035616;28;20244;-85
2023/03/05 08:52:39;;;;;;;21.23;12.63;;;8.50;61.10;8.60;96271.00;;;;5034192;28;20244;-83
2023/03/05 08:55:08;;;;;;;18.13;11.57;;;8.50;61.20;8.60;96258.00;;;;5028606;28;20307;-85
2023/03/05 08:57:35;;;;;;;17.57;12.20;;;8.60;61.20;8.70;96266.00;;;;5028511;28;20338;-84
2023/03/05 09:00:03;;;;;;;21.10;12.60;;;8.60;61.20;8.70;96264.00;;;;5034143;28;20734;-83
2023/03/05 09:02:30;;;;;;;20.63;12.50;;;8.60;61.10;8.70;96272.00;;;;5031984;28;20651;-83
2023/03/05 09:04:59;;;;;;;21.80;12.60;;;8.70;61.00;8.80;96273.00;;;;5037172;28;20224;-82
2023/03/05 09:07:28;;;;;;;21.47;12.97;;;8.70;61.00;8.80;96269.00;;;;5022617;28;20236;-83
2023/03/05 09:09:55;;;;;;;20.33;13.07;;;8.70;61.00;8.80;96270.00;;;;5040009;28;20259;-83
2023/03/05 09:12:22;;;;;;;22.47;14.00;;;8.80;61.00;8.90;96266.00;;;;5022518;28;20292;-82
2023/03/05 09:14:50;;;;;;;20.70;12.83;;;8.80;61.00;8.90;96264.00;;;;5038124;28;20582;-81
2023/03/05 09:17:17;;;;;;;23.13;13.87;;;8.80;60.90;9.00;96258.00;;;;5039156;28;20221;-81
2023/03/05 09:19:45;;;;;;;20.47;12.90;;;8.90;60.90;9.00;96265.00;;;;5037869;28;20746;-81
2023/03/05 09:22:14;;;;;;;19.07;11.23;;;8.90;60.70;9.00;96264.00;;;;5037936;28;20280;-83
2023/03/05 09:24:42;;;;;;;17.10;11.60;;;8.90;60.60;9.00;96262.00;;;;5027065;28;20280;-82
2023/03/05 09:27:09;;;;;;;21.93;12.77;;;9.00;60.60;9.00;96261.00;;;;5019793;28;20202;-83
2023/03/05 09:29:36;;;;;;;20.87;12.53;;;9.00;60.50;9.10;96264.00;;;;5035582;28;20197;-82
2023/03/05 09:32:04;;;;;;;18.63;11.73;;;9.00;60.40;9.10;96257.00;;;;5039754;28;20213;-83
2023/03/05 09:34:31;;;;;;;19.87;11.93;;;9.10;60.40;9.10;96258.00;;;;5041010;28;20259;-81
2023/03/05 09:36:59;;;;;;;18.40;11.77;;;9.10;60.50;9.20;96256.00;;;;5041603;28;20205;-81
2023/03/05 09:39:28;;;;;;;19.57;12.50;;;9.10;60.50;9.20;96256.00;;;;5039013;28;20221;-80
2023/03/05 09:42:25;;;;;;;20.83;11.93;;;9.20;60.50;9.20;96261.00;;;;5040118;28;20320;-83
2023/03/05 09:45:13;;;;;;;17.43;11.67;;;9.20;60.40;9.30;96254.00;;;;5038407;28;20284;-84
2023/03/05 09:48:01;;;;;;;18.33;12.40;;;9.20;60.40;9.30;96250.00;;;;5032142;28;20197;-83
2023/03/05 09:50:41;;;;;;;20.60;11.90;;;9.30;60.30;9.30;96253.00;;;;5056985;28;20205;-83
2023/03/05 09:53:25;;;;;;;19.20;12.30;;;9.30;60.20;9.30;96249.00;;;;5046527;28;20243;-88
2023/03/05 09:55:58;;;;;;;19.20;11.93;;;9.30;60.10;9.40;96249.00;;;;5038361;28;20218;-83
2023/03/05 09:58:35;;;;;;;18.57;11.97;;;9.40;60.10;9.40;96248.00;;;;5052444;28;20281;-83
2023/03/05 10:01:08;;;;;;;19.80;11.77;;;9.30;60.00;9.40;96247.00;;;;5045061;28;20236;-81
2023/03/05 10:03:56;;;;;;;17.00;11.00;;;9.40;60.10;9.40;96238.00;;;;5043271;28;20200;-82
2023/03/05 10:06:27;;;;;;;15.90;10.97;;;9.40;60.00;9.50;96236.00;;;;5048038;28;20201;-81
2023/03/05 10:08:58;;;;;;;16.40;11.03;;;9.40;60.10;9.50;96235.00;;;;5038520;28;20231;-81
2023/03/05 10:11:41;;;;;;;17.40;11.17;;;9.40;60.00;9.50;96227.00;;;;5059827;28;20296;-81
2023/03/05 10:14:15;;;;;;;17.10;11.47;;;9.50;60.00;9.50;96237.00;;;;5038253;28;20626;-82
2023/03/05 10:17:34;;;;;;;22.57;12.80;;;9.50;60.10;9.60;96232.00;;;;5038030;28;20207;-81
2023/03/05 10:20:22;;;;;;;18.20;11.73;;;9.50;60.00;9.60;96231.00;;;;5044691;28;20201;-82
2023/03/05 10:23:18;;;;;;;19.73;12.00;;;9.50;60.00;9.60;96227.00;;;;5040358;28;20193;-82
2023/03/05 10:26:02;;;;;;;19.43;11.50;;;9.60;59.90;9.60;96217.00;;;;5037013;28;20253;-82
2023/03/05 10:28:43;;;;;;;18.70;11.80;;;9.60;60.30;9.60;96214.00;;;;5034796;28;20193;-82
2023/03/05 10:31:42;;;;;;;19.17;11.73;;;9.60;59.80;9.60;96216.00;;;;5037916;28;20665;-83
2023/03/05 10:34:53;;;;;;;18.93;11.13;;;9.60;59.90;9.60;96204.00;;;;5019326;28;20202;-83
2023/03/05 10:38:11;;;;;;;17.47;11.10;;;9.60;59.90;9.70;96204.00;;;;5038295;28;20193;-82
2023/03/05 10:40:46;;;;;;;14.67;10.13;;;9.60;59.80;9.70;96202.00;;;;4987241;28;20324;-82
2023/03/05 10:43:28;;;;;;;19.50;11.67;;;9.60;60.00;9.70;96200.00;;;;5022089;28;20201;-81
2023/03/05 10:45:58;;;;;;;19.40;11.27;;;9.70;60.10;9.80;96203.00;;;;5036440;28;20203;-81
2023/03/05 10:48:37;;;;;;;16.73;10.97;;;9.70;60.00;9.80;96196.00;;;;5037231;28;20265;-82
2023/03/05 10:51:15;;;;;;;15.70;10.37;;;9.70;59.90;9.80;96197.00;;;;5027491;28;20705;-81
2023/03/05 10:53:55;;;;;;;16.77;10.97;;;9.70;59.90;9.90;96184.00;;;;5041280;28;20288;-82
2023/03/05 10:56:26;;;;;;;19.43;12.03;;;9.80;59.90;9.90;96183.00;;;;5034871;28;20240;-81
2023/03/05 10:58:54;;;;;;;18.80;11.40;;;9.80;60.00;9.90;96182.00;;;;5050610;28;20696;-81
2023/03/05 11:01:26;;;;;;;17.60;10.67;;;9.80;60.00;9.90;96178.00;;;;5035011;28;20632;-80
2023/03/05 11:03:59;;;;;;;19.47;12.03;;;9.80;60.10;10.00;96176.00;;;;5034898;28;20198;-80
2023/03/05 11:06:45;;;;;;;20.47;12.53;;;9.90;60.00;10.00;96170.00;;;;5033544;28;20261;-80
2023/03/05 11:09:22;;;;;;;19.40;11.90;;;9.90;59.90;10.00;96169.00;;;;5011372;28;20197;-80